Lone Star, Idaho
Current Conditions -  °F | °C
As of 9:53 PM on Monday 20 Oct 2014 (Local Time) from KJER Reporting Station
Clear Clear  
Wind Chill: 63°   Ceiling: Unl
Heat Index: 63°   Visibility: 10mi
Dew Point: 34°   Wind: 12mph
Humidity: 34%   Direction: 90°E
Pressure: 29.77"   Gusts: NA
Location:  42.9609°N, 114.301°W
Report Text: KJER 210353Z AUTO 09010KT 10SM CLR 17/01 A2977 RMK AO2 SLP054 T01720011
Loading
Personal Weather Stations






























Interactive Weather Map
Tropical Storm Tracking
New forecast layout! Learn more

10-Day Weather Forecast

Advertisements
Track Severe Weather on mobile